sensor_id;sensor_type;location;lat;lon;timestamp;noise_LAeq;noise_LA_min;noise_LA_max;noise_LA01;noise_LA95
40103;Laerm;25814;48.550;9.108;2024-02-16T00:00:30;31.99;29.53;47.60;;
40103;Laerm;25814;48.550;9.108;2024-02-16T00:02:57;33.41;30.02;41.62;;
40103;Laerm;25814;48.550;9.108;2024-02-16T00:05:24;31.90;29.52;42.26;;
40103;Laerm;25814;48.550;9.108;2024-02-16T00:07:50;33.40;29.25;55.72;;
40103;Laerm;25814;48.550;9.108;2024-02-16T00:10:16;31.15;29.48;36.32;;
40103;Laerm;25814;48.550;9.108;2024-02-16T00:12:45;31.86;29.62;36.90;;
40103;Laerm;25814;48.550;9.108;2024-02-16T00:15:11;32.26;29.53;38.29;;
40103;Laerm;25814;48.550;9.108;2024-02-16T00:17:37;31.15;29.35;38.13;;
40103;Laerm;25814;48.550;9.108;2024-02-16T00:20:04;31.30;29.67;36.39;;
40103;Laerm;25814;48.550;9.108;2024-02-16T00:22:33;32.34;29.48;44.79;;
40103;Laerm;25814;48.550;9.108;2024-02-16T00:24:59;36.34;29.99;60.48;;
40103;Laerm;25814;48.550;9.108;2024-02-16T00:27:26;34.76;29.42;47.53;;
40103;Laerm;25814;48.550;9.108;2024-02-16T00:29:52;31.66;29.36;38.73;;
40103;Laerm;25814;48.550;9.108;2024-02-16T00:32:19;34.10;29.63;44.42;;
40103;Laerm;25814;48.550;9.108;2024-02-16T00:34:45;32.26;29.69;38.07;;
40103;Laerm;25814;48.550;9.108;2024-02-16T00:37:11;31.34;29.35;37.14;;
40103;Laerm;25814;48.550;9.108;2024-02-16T00:39:38;32.82;29.62;39.22;;
40103;Laerm;25814;48.550;9.108;2024-02-16T00:42:08;31.11;29.15;36.66;;
40103;Laerm;25814;48.550;9.108;2024-02-16T00:44:34;31.15;29.25;36.56;;
40103;Laerm;25814;48.550;9.108;2024-02-16T00:47:00;31.39;29.03;36.92;;
40103;Laerm;25814;48.550;9.108;2024-02-16T00:49:27;31.38;29.01;36.53;;
40103;Laerm;25814;48.550;9.108;2024-02-16T00:51:53;30.66;29.26;36.21;;
40103;Laerm;25814;48.550;9.108;2024-02-16T00:54:19;30.76;29.14;35.93;;
40103;Laerm;25814;48.550;9.108;2024-02-16T00:56:45;30.47;29.08;35.99;;
40103;Laerm;25814;48.550;9.108;2024-02-16T00:59:12;31.03;29.15;48.02;;
40103;Laerm;25814;48.550;9.108;2024-02-16T01:01:38;30.75;28.94;36.12;;
40103;Laerm;25814;48.550;9.108;2024-02-16T01:04:04;30.79;29.18;35.96;;
40103;Laerm;25814;48.550;9.108;2024-02-16T01:06:32;30.97;29.32;36.64;;
40103;Laerm;25814;48.550;9.108;2024-02-16T01:08:58;30.94;29.15;38.38;;
40103;Laerm;25814;48.550;9.108;2024-02-16T01:11:25;30.85;29.15;37.46;;
40103;Laerm;25814;48.550;9.108;2024-02-16T01:13:52;30.17;28.78;35.56;;
40103;Laerm;25814;48.550;9.108;2024-02-16T01:16:18;31.45;28.99;39.88;;
40103;Laerm;25814;48.550;9.108;2024-02-16T01:18:44;31.06;29.33;36.45;;
40103;Laerm;25814;48.550;9.108;2024-02-16T01:21:11;34.49;29.37;46.20;;
40103;Laerm;25814;48.550;9.108;2024-02-16T01:23:37;30.98;29.27;36.33;;
40103;Laerm;25814;48.550;9.108;2024-02-16T01:26:03;39.39;29.29;49.87;;
40103;Laerm;25814;48.550;9.108;2024-02-16T01:28:29;36.68;29.32;48.44;;
40103;Laerm;25814;48.550;9.108;2024-02-16T01:30:55;30.76;29.04;36.01;;
40103;Laerm;25814;48.550;9.108;2024-02-16T01:33:22;30.63;29.04;35.80;;
40103;Laerm;25814;48.550;9.108;2024-02-16T01:35:48;30.44;28.97;35.88;;
40103;Laerm;25814;48.550;9.108;2024-02-16T01:38:14;30.59;29.09;35.90;;
40103;Laerm;25814;48.550;9.108;2024-02-16T01:40:40;30.57;28.96;35.85;;
40103;Laerm;25814;48.550;9.108;2024-02-16T01:43:06;30.65;29.25;35.98;;
40103;Laerm;25814;48.550;9.108;2024-02-16T01:45:32;32.12;29.68;38.31;;
40103;Laerm;25814;48.550;9.108;2024-02-16T01:47:58;30.95;29.20;36.40;;
40103;Laerm;25814;48.550;9.108;2024-02-16T01:50:25;32.35;29.33;42.55;;
40103;Laerm;25814;48.550;9.108;2024-02-16T01:52:52;33.58;29.27;42.62;;
40103;Laerm;25814;48.550;9.108;2024-02-16T01:55:20;30.79;29.08;35.85;;
40103;Laerm;25814;48.550;9.108;2024-02-16T01:57:48;31.16;29.43;36.54;;
40103;Laerm;25814;48.550;9.108;2024-02-16T02:00:16;31.47;29.40;37.64;;
40103;Laerm;25814;48.550;9.108;2024-02-16T02:02:45;30.62;29.05;35.95;;
40103;Laerm;25814;48.550;9.108;2024-02-16T02:05:12;30.68;29.20;35.92;;
40103;Laerm;25814;48.550;9.108;2024-02-16T02:07:40;30.56;29.21;36.01;;
40103;Laerm;25814;48.550;9.108;2024-02-16T02:10:08;30.87;29.36;35.95;;
40103;Laerm;25814;48.550;9.108;2024-02-16T02:12:34;31.18;29.22;38.30;;
40103;Laerm;25814;48.550;9.108;2024-02-16T02:15:00;30.47;28.89;35.76;;
40103;Laerm;25814;48.550;9.108;2024-02-16T02:17:28;30.60;28.90;35.90;;
40103;Laerm;25814;48.550;9.108;2024-02-16T02:19:54;34.69;29.08;47.82;;
40103;Laerm;25814;48.550;9.108;2024-02-16T02:22:21;30.71;29.13;36.32;;
40103;Laerm;25814;48.550;9.108;2024-02-16T02:24:48;30.62;28.98;35.72;;
40103;Laerm;25814;48.550;9.108;2024-02-16T02:27:15;32.24;29.37;41.62;;
40103;Laerm;25814;48.550;9.108;2024-02-16T02:29:42;31.18;29.44;37.16;;
40103;Laerm;25814;48.550;9.108;2024-02-16T02:32:09;30.54;29.07;35.84;;
40103;Laerm;25814;48.550;9.108;2024-02-16T02:34:35;30.11;28.99;35.61;;
40103;Laerm;25814;48.550;9.108;2024-02-16T02:37:02;30.62;29.27;36.01;;
40103;Laerm;25814;48.550;9.108;2024-02-16T02:39:30;30.68;28.96;35.94;;
40103;Laerm;25814;48.550;9.108;2024-02-16T02:41:56;31.41;29.17;37.11;;
40103;Laerm;25814;48.550;9.108;2024-02-16T02:44:24;31.27;29.23;36.52;;
40103;Laerm;25814;48.550;9.108;2024-02-16T02:46:50;30.53;29.08;35.72;;
40103;Laerm;25814;48.550;9.108;2024-02-16T02:49:20;31.48;29.41;36.61;;
40103;Laerm;25814;48.550;9.108;2024-02-16T02:51:46;43.32;29.11;68.84;;
40103;Laerm;25814;48.550;9.108;2024-02-16T02:54:12;30.51;28.97;36.03;;
40103;Laerm;25814;48.550;9.108;2024-02-16T02:56:38;31.04;29.28;39.70;;
40103;Laerm;25814;48.550;9.108;2024-02-16T02:59:04;30.92;29.38;35.93;;
40103;Laerm;25814;48.550;9.108;2024-02-16T03:01:31;30.75;29.34;35.73;;
40103;Laerm;25814;48.550;9.108;2024-02-16T03:03:58;30.81;29.21;41.15;;
40103;Laerm;25814;48.550;9.108;2024-02-16T03:06:25;30.48;29.18;35.78;;
40103;Laerm;25814;48.550;9.108;2024-02-16T03:08:51;31.31;29.34;37.92;;
40103;Laerm;25814;48.550;9.108;2024-02-16T03:11:17;31.38;29.61;37.62;;
40103;Laerm;25814;48.550;9.108;2024-02-16T03:13:43;31.58;29.74;36.31;;
40103;Laerm;25814;48.550;9.108;2024-02-16T03:16:09;31.95;29.40;39.59;;
40103;Laerm;25814;48.550;9.108;2024-02-16T03:18:36;31.27;29.42;37.89;;
40103;Laerm;25814;48.550;9.108;2024-02-16T03:21:02;37.50;30.10;48.36;;
40103;Laerm;25814;48.550;9.108;2024-02-16T03:23:28;33.98;29.54;44.05;;
40103;Laerm;25814;48.550;9.108;2024-02-16T03:25:54;33.06;29.68;46.72;;
40103;Laerm;25814;48.550;9.108;2024-02-16T03:28:20;31.89;29.56;36.68;;
40103;Laerm;25814;48.550;9.108;2024-02-16T03:30:47;31.39;29.64;36.61;;
40103;Laerm;25814;48.550;9.108;2024-02-16T03:33:13;31.28;29.86;36.13;;
40103;Laerm;25814;48.550;9.108;2024-02-16T03:35:39;33.67;29.82;41.93;;
40103;Laerm;25814;48.550;9.108;2024-02-16T03:38:07;32.04;29.87;37.85;;
40103;Laerm;25814;48.550;9.108;2024-02-16T03:40:34;31.37;29.86;35.86;;
40103;Laerm;25814;48.550;9.108;2024-02-16T03:43:00;32.58;30.72;39.99;;
40103;Laerm;25814;48.550;9.108;2024-02-16T03:45:26;32.61;30.28;37.11;;
40103;Laerm;25814;48.550;9.108;2024-02-16T03:47:53;31.36;29.87;36.29;;
40103;Laerm;25814;48.550;9.108;2024-02-16T03:50:20;33.94;30.27;45.15;;
40103;Laerm;25814;48.550;9.108;2024-02-16T03:52:46;32.12;30.32;39.53;;
40103;Laerm;25814;48.550;9.108;2024-02-16T03:55:12;35.04;30.62;47.51;;
40103;Laerm;25814;48.550;9.108;2024-02-16T03:57:40;32.41;30.31;36.57;;
40103;Laerm;25814;48.550;9.108;2024-02-16T04:00:09;32.46;30.64;36.43;;
40103;Laerm;25814;48.550;9.108;2024-02-16T04:02:37;40.89;31.02;64.92;;
40103;Laerm;25814;48.550;9.108;2024-02-16T04:05:04;34.14;31.22;38.32;;
40103;Laerm;25814;48.550;9.108;2024-02-16T04:07:30;33.55;31.43;37.22;;
40103;Laerm;25814;48.550;9.108;2024-02-16T04:09:56;33.40;31.71;36.74;;
40103;Laerm;25814;48.550;9.108;2024-02-16T04:12:22;34.22;32.22;37.63;;
40103;Laerm;25814;48.550;9.108;2024-02-16T04:14:48;35.80;31.82;45.40;;
40103;Laerm;25814;48.550;9.108;2024-02-16T04:17:14;40.55;31.92;63.03;;
40103;Laerm;25814;48.550;9.108;2024-02-16T04:19:40;33.90;31.62;43.01;;
40103;Laerm;25814;48.550;9.108;2024-02-16T04:22:06;33.99;32.05;39.83;;
40103;Laerm;25814;48.550;9.108;2024-02-16T04:24:32;33.28;31.09;38.30;;
40103;Laerm;25814;48.550;9.108;2024-02-16T04:26:58;32.45;30.85;36.59;;
40103;Laerm;25814;48.550;9.108;2024-02-16T04:29:25;32.93;31.23;36.66;;
40103;Laerm;25814;48.550;9.108;2024-02-16T04:31:51;32.88;30.24;38.55;;
40103;Laerm;25814;48.550;9.108;2024-02-16T04:34:17;34.80;31.78;39.26;;
40103;Laerm;25814;48.550;9.108;2024-02-16T04:36:43;35.15;31.83;43.36;;
40103;Laerm;25814;48.550;9.108;2024-02-16T04:39:09;33.27;31.29;37.38;;
40103;Laerm;25814;48.550;9.108;2024-02-16T04:41:36;33.88;31.92;40.76;;
40103;Laerm;25814;48.550;9.108;2024-02-16T04:44:02;34.15;31.89;37.76;;
40103;Laerm;25814;48.550;9.108;2024-02-16T04:46:28;43.11;32.11;68.21;;
40103;Laerm;25814;48.550;9.108;2024-02-16T04:48:54;34.39;32.49;39.90;;
40103;Laerm;25814;48.550;9.108;2024-02-16T04:51:20;34.82;32.74;38.84;;
40103;Laerm;25814;48.550;9.108;2024-02-16T04:53:46;33.90;32.06;38.57;;
40103;Laerm;25814;48.550;9.108;2024-02-16T04:56:13;38.98;32.46;63.95;;
40103;Laerm;25814;48.550;9.108;2024-02-16T04:58:42;35.27;32.33;45.35;;
40103;Laerm;25814;48.550;9.108;2024-02-16T05:01:08;33.98;32.11;39.60;;
40103;Laerm;25814;48.550;9.108;2024-02-16T05:03:35;37.26;32.32;47.47;;
40103;Laerm;25814;48.550;9.108;2024-02-16T05:06:02;37.02;33.36;49.19;;
40103;Laerm;25814;48.550;9.108;2024-02-16T05:08:28;36.61;33.60;46.54;;
40103;Laerm;25814;48.550;9.108;2024-02-16T05:10:54;35.94;32.65;44.84;;
40103;Laerm;25814;48.550;9.108;2024-02-16T05:13:20;35.02;33.07;37.92;;
40103;Laerm;25814;48.550;9.108;2024-02-16T05:15:47;36.41;33.06;42.10;;
40103;Laerm;25814;48.550;9.108;2024-02-16T05:18:14;35.00;32.38;38.58;;
40103;Laerm;25814;48.550;9.108;2024-02-16T05:20:40;35.49;32.92;40.44;;
40103;Laerm;25814;48.550;9.108;2024-02-16T05:23:06;36.71;33.68;56.49;;
40103;Laerm;25814;48.550;9.108;2024-02-16T05:25:32;35.66;32.50;40.63;;
40103;Laerm;25814;48.550;9.108;2024-02-16T05:27:59;36.52;32.37;44.21;;
40103;Laerm;25814;48.550;9.108;2024-02-16T05:30:26;37.32;33.80;43.10;;
40103;Laerm;25814;48.550;9.108;2024-02-16T05:32:53;36.43;34.11;45.99;;
40103;Laerm;25814;48.550;9.108;2024-02-16T05:35:23;37.51;34.79;47.22;;
40103;Laerm;25814;48.550;9.108;2024-02-16T05:37:53;38.61;33.90;47.13;;
40103;Laerm;25814;48.550;9.108;2024-02-16T05:40:20;49.92;35.47;75.73;;
40103;Laerm;25814;48.550;9.108;2024-02-16T05:42:53;37.91;34.72;43.65;;
40103;Laerm;25814;48.550;9.108;2024-02-16T05:45:20;38.80;35.18;43.45;;
40103;Laerm;25814;48.550;9.108;2024-02-16T05:47:49;38.91;35.75;45.76;;
40103;Laerm;25814;48.550;9.108;2024-02-16T05:50:16;38.53;35.08;47.32;;
40103;Laerm;25814;48.550;9.108;2024-02-16T05:52:43;38.12;34.03;46.71;;
40103;Laerm;25814;48.550;9.108;2024-02-16T05:55:11;36.20;33.15;39.93;;
40103;Laerm;25814;48.550;9.108;2024-02-16T05:57:37;42.16;35.23;57.98;;
40103;Laerm;25814;48.550;9.108;2024-02-16T06:00:06;39.30;34.99;49.06;;
40103;Laerm;25814;48.550;9.108;2024-02-16T06:02:33;40.10;35.11;54.42;;
40103;Laerm;25814;48.550;9.108;2024-02-16T06:05:01;37.77;34.88;47.43;;
40103;Laerm;25814;48.550;9.108;2024-02-16T06:07:28;50.41;34.74;64.91;;
40103;Laerm;25814;48.550;9.108;2024-02-16T06:09:55;53.33;34.12;67.77;;
40103;Laerm;25814;48.550;9.108;2024-02-16T06:12:22;42.38;35.88;57.07;;
40103;Laerm;25814;48.550;9.108;2024-02-16T06:14:48;52.93;35.92;69.28;;
40103;Laerm;25814;48.550;9.108;2024-02-16T06:17:15;49.95;35.58;67.72;;
40103;Laerm;25814;48.550;9.108;2024-02-16T06:19:42;47.38;34.60;66.79;;
40103;Laerm;25814;48.550;9.108;2024-02-16T06:22:08;44.72;35.76;70.65;;
40103;Laerm;25814;48.550;9.108;2024-02-16T06:24:36;44.55;36.48;63.62;;
40103;Laerm;25814;48.550;9.108;2024-02-16T06:27:03;48.25;34.67;62.89;;
40103;Laerm;25814;48.550;9.108;2024-02-16T06:29:29;48.21;37.01;61.53;;
40103;Laerm;25814;48.550;9.108;2024-02-16T06:31:56;42.30;36.22;60.27;;
40103;Laerm;25814;48.550;9.108;2024-02-16T06:34:22;48.08;35.89;65.73;;
40103;Laerm;25814;48.550;9.108;2024-02-16T06:36:48;42.46;36.46;55.02;;
40103;Laerm;25814;48.550;9.108;2024-02-16T06:39:16;47.06;35.39;60.82;;
40103;Laerm;25814;48.550;9.108;2024-02-16T06:41:44;41.00;36.78;58.09;;
40103;Laerm;25814;48.550;9.108;2024-02-16T06:44:12;40.91;37.93;48.79;;
40103;Laerm;25814;48.550;9.108;2024-02-16T06:46:38;40.05;37.12;52.52;;
40103;Laerm;25814;48.550;9.108;2024-02-16T06:49:04;49.33;36.76;62.74;;
40103;Laerm;25814;48.550;9.108;2024-02-16T06:51:31;43.25;36.76;60.86;;
40103;Laerm;25814;48.550;9.108;2024-02-16T06:53:57;45.42;37.22;62.48;;
40103;Laerm;25814;48.550;9.108;2024-02-16T06:56:23;45.69;37.12;64.51;;
40103;Laerm;25814;48.550;9.108;2024-02-16T06:58:49;49.44;38.08;63.99;;
40103;Laerm;25814;48.550;9.108;2024-02-16T07:01:17;45.07;37.84;63.83;;
40103;Laerm;25814;48.550;9.108;2024-02-16T07:03:46;46.63;37.76;62.55;;
40103;Laerm;25814;48.550;9.108;2024-02-16T07:06:12;42.75;36.97;63.03;;
40103;Laerm;25814;48.550;9.108;2024-02-16T07:08:42;43.15;37.33;60.47;;
40103;Laerm;25814;48.550;9.108;2024-02-16T07:11:10;46.33;36.14;56.46;;
40103;Laerm;25814;48.550;9.108;2024-02-16T07:13:42;42.26;35.76;54.74;;
40103;Laerm;25814;48.550;9.108;2024-02-16T07:16:08;41.40;36.21;57.46;;
40103;Laerm;25814;48.550;9.108;2024-02-16T07:18:34;39.78;35.71;51.71;;
40103;Laerm;25814;48.550;9.108;2024-02-16T07:21:02;38.61;35.64;46.87;;
40103;Laerm;25814;48.550;9.108;2024-02-16T07:23:29;41.16;35.65;59.09;;
40103;Laerm;25814;48.550;9.108;2024-02-16T07:25:56;39.59;35.54;55.55;;
40103;Laerm;25814;48.550;9.108;2024-02-16T07:28:23;40.66;36.17;54.35;;
40103;Laerm;25814;48.550;9.108;2024-02-16T07:30:51;42.91;37.26;59.82;;
40103;Laerm;25814;48.550;9.108;2024-02-16T07:33:17;43.79;38.41;54.43;;
40103;Laerm;25814;48.550;9.108;2024-02-16T07:35:43;47.88;37.12;61.25;;
40103;Laerm;25814;48.550;9.108;2024-02-16T07:38:10;44.70;36.26;63.96;;
40103;Laerm;25814;48.550;9.108;2024-02-16T07:40:36;48.48;38.41;70.97;;
40103;Laerm;25814;48.550;9.108;2024-02-16T07:43:02;54.16;41.41;68.78;;
40103;Laerm;25814;48.550;9.108;2024-02-16T07:45:30;49.09;39.12;62.29;;
40103;Laerm;25814;48.550;9.108;2024-02-16T07:47:57;67.30;39.90;82.12;;
40103;Laerm;25814;48.550;9.108;2024-02-16T07:50:23;43.17;37.75;52.27;;
40103;Laerm;25814;48.550;9.108;2024-02-16T07:52:50;45.90;35.82;57.72;;
40103;Laerm;25814;48.550;9.108;2024-02-16T07:55:16;41.66;35.86;56.16;;
40103;Laerm;25814;48.550;9.108;2024-02-16T07:57:46;42.68;37.42;54.07;;
40103;Laerm;25814;48.550;9.108;2024-02-16T08:00:12;42.95;37.46;58.50;;
40103;Laerm;25814;48.550;9.108;2024-02-16T08:02:41;42.79;38.41;51.15;;
40103;Laerm;25814;48.550;9.108;2024-02-16T08:05:10;45.18;37.98;55.89;;
40103;Laerm;25814;48.550;9.108;2024-02-16T08:07:41;45.69;37.47;57.54;;
40103;Laerm;25814;48.550;9.108;2024-02-16T08:10:10;41.08;35.76;56.35;;
40103;Laerm;25814;48.550;9.108;2024-02-16T08:12:38;40.11;36.71;52.03;;
40103;Laerm;25814;48.550;9.108;2024-02-16T08:15:05;38.51;35.94;50.19;;
40103;Laerm;25814;48.550;9.108;2024-02-16T08:17:36;40.41;35.27;60.81;;
40103;Laerm;25814;48.550;9.108;2024-02-16T08:20:03;40.05;35.96;49.65;;
40103;Laerm;25814;48.550;9.108;2024-02-16T08:22:30;39.74;35.80;50.16;;
40103;Laerm;25814;48.550;9.108;2024-02-16T08:24:56;40.58;35.98;54.84;;
40103;Laerm;25814;48.550;9.108;2024-02-16T08:27:22;40.56;34.66;54.99;;
40103;Laerm;25814;48.550;9.108;2024-02-16T08:29:48;37.06;34.70;44.84;;
40103;Laerm;25814;48.550;9.108;2024-02-16T08:32:14;37.66;34.44;51.88;;
40103;Laerm;25814;48.550;9.108;2024-02-16T08:34:41;38.62;34.43;54.11;;
40103;Laerm;25814;48.550;9.108;2024-02-16T08:37:08;41.01;35.04;51.50;;
40103;Laerm;25814;48.550;9.108;2024-02-16T08:39:34;44.39;34.48;57.32;;
40103;Laerm;25814;48.550;9.108;2024-02-16T08:42:00;45.63;34.51;66.31;;
40103;Laerm;25814;48.550;9.108;2024-02-16T08:44:27;40.31;33.39;54.89;;
40103;Laerm;25814;48.550;9.108;2024-02-16T08:46:53;40.10;34.50;63.72;;
40103;Laerm;25814;48.550;9.108;2024-02-16T08:51:49;45.53;33.99;61.49;;
40103;Laerm;25814;48.550;9.108;2024-02-16T08:54:15;48.41;33.49;62.90;;
40103;Laerm;25814;48.550;9.108;2024-02-16T08:56:45;59.60;33.61;74.48;;
40103;Laerm;25814;48.550;9.108;2024-02-16T08:59:11;46.20;34.23;61.00;;
40103;Laerm;25814;48.550;9.108;2024-02-16T09:01:38;45.35;33.81;61.04;;
40103;Laerm;25814;48.550;9.108;2024-02-16T09:04:07;44.32;34.00;61.09;;
40103;Laerm;25814;48.550;9.108;2024-02-16T09:06:33;39.73;33.48;53.94;;
40103;Laerm;25814;48.550;9.108;2024-02-16T09:09:03;40.51;33.23;64.17;;
40103;Laerm;25814;48.550;9.108;2024-02-16T09:11:30;38.15;33.66;54.42;;
40103;Laerm;25814;48.550;9.108;2024-02-16T09:13:56;52.50;33.72;78.99;;
40103;Laerm;25814;48.550;9.108;2024-02-16T09:16:22;41.88;33.61;60.72;;
40103;Laerm;25814;48.550;9.108;2024-02-16T09:18:48;41.17;34.54;54.26;;
40103;Laerm;25814;48.550;9.108;2024-02-16T09:21:14;39.82;33.77;57.60;;
40103;Laerm;25814;48.550;9.108;2024-02-16T09:23:40;37.66;33.99;49.24;;
40103;Laerm;25814;48.550;9.108;2024-02-16T09:26:06;38.57;34.75;49.38;;
40103;Laerm;25814;48.550;9.108;2024-02-16T09:28:40;48.05;35.05;62.85;;
40103;Laerm;25814;48.550;9.108;2024-02-16T09:31:16;42.86;34.84;62.06;;
40103;Laerm;25814;48.550;9.108;2024-02-16T09:33:42;42.90;34.81;57.10;;
40103;Laerm;25814;48.550;9.108;2024-02-16T09:36:08;40.82;35.43;54.01;;
40103;Laerm;25814;48.550;9.108;2024-02-16T09:38:34;42.86;34.63;57.77;;
40103;Laerm;25814;48.550;9.108;2024-02-16T09:41:01;38.10;34.77;55.30;;
40103;Laerm;25814;48.550;9.108;2024-02-16T09:43:29;37.38;34.34;49.60;;
40103;Laerm;25814;48.550;9.108;2024-02-16T09:45:57;37.59;33.62;50.59;;
40103;Laerm;25814;48.550;9.108;2024-02-16T09:48:27;42.51;34.17;56.35;;
40103;Laerm;25814;48.550;9.108;2024-02-16T09:50:56;42.73;33.59;54.17;;
40103;Laerm;25814;48.550;9.108;2024-02-16T09:53:26;46.11;32.88;62.16;;
40103;Laerm;25814;48.550;9.108;2024-02-16T09:55:53;42.73;32.89;54.36;;
40103;Laerm;25814;48.550;9.108;2024-02-16T09:58:19;41.66;33.23;52.78;;
40103;Laerm;25814;48.550;9.108;2024-02-16T10:00:53;42.37;32.72;60.06;;
40103;Laerm;25814;48.550;9.108;2024-02-16T10:03:28;37.49;33.16;51.96;;
40103;Laerm;25814;48.550;9.108;2024-02-16T10:06:09;37.64;32.73;48.67;;
40103;Laerm;25814;48.550;9.108;2024-02-16T10:08:55;41.66;33.45;57.64;;
40103;Laerm;25814;48.550;9.108;2024-02-16T10:11:27;36.70;32.94;43.63;;
40103;Laerm;25814;48.550;9.108;2024-02-16T10:13:59;40.14;33.02;55.53;;
40103;Laerm;25814;48.550;9.108;2024-02-16T10:16:26;39.16;32.55;53.32;;
40103;Laerm;25814;48.550;9.108;2024-02-16T10:19:04;39.75;32.16;56.10;;
40103;Laerm;25814;48.550;9.108;2024-02-16T10:21:31;43.15;32.54;59.54;;
40103;Laerm;25814;48.550;9.108;2024-02-16T10:24:09;43.71;32.52;60.59;;
40103;Laerm;25814;48.550;9.108;2024-02-16T10:26:37;38.22;32.51;56.44;;
40103;Laerm;25814;48.550;9.108;2024-02-16T10:29:06;37.08;32.26;53.09;;
40103;Laerm;25814;48.550;9.108;2024-02-16T10:31:32;37.27;33.03;51.20;;
40103;Laerm;25814;48.550;9.108;2024-02-16T10:34:03;35.52;31.94;48.86;;
40103;Laerm;25814;48.550;9.108;2024-02-16T10:36:33;36.14;32.07;49.08;;
40103;Laerm;25814;48.550;9.108;2024-02-16T10:39:01;52.88;32.52;77.55;;
40103;Laerm;25814;48.550;9.108;2024-02-16T10:41:40;41.07;32.40;63.86;;
40103;Laerm;25814;48.550;9.108;2024-02-16T10:44:06;35.80;32.52;48.44;;
40103;Laerm;25814;48.550;9.108;2024-02-16T10:46:34;35.22;32.21;49.23;;
40103;Laerm;25814;48.550;9.108;2024-02-16T10:49:01;43.52;32.63;65.03;;
40103;Laerm;25814;48.550;9.108;2024-02-16T10:51:41;47.03;32.98;68.47;;
40103;Laerm;25814;48.550;9.108;2024-02-16T10:54:10;37.79;33.57;48.76;;
40103;Laerm;25814;48.550;9.108;2024-02-16T10:56:40;39.46;33.46;56.63;;
40103;Laerm;25814;48.550;9.108;2024-02-16T10:59:08;41.11;35.15;48.69;;
40103;Laerm;25814;48.550;9.108;2024-02-16T11:01:42;40.37;33.07;58.45;;
40103;Laerm;25814;48.550;9.108;2024-02-16T11:04:21;44.30;31.93;59.03;;
40103;Laerm;25814;48.550;9.108;2024-02-16T11:06:55;47.32;31.38;61.50;;
40103;Laerm;25814;48.550;9.108;2024-02-16T11:09:30;46.79;31.40;61.08;;
40103;Laerm;25814;48.550;9.108;2024-02-16T11:12:01;40.25;32.68;53.62;;
40103;Laerm;25814;48.550;9.108;2024-02-16T11:14:56;42.23;33.55;61.22;;
40103;Laerm;25814;48.550;9.108;2024-02-16T11:17:23;36.52;32.50;48.36;;
40103;Laerm;25814;48.550;9.108;2024-02-16T11:19:54;36.69;32.22;50.09;;
40103;Laerm;25814;48.550;9.108;2024-02-16T11:22:20;41.58;32.98;56.49;;
40103;Laerm;25814;48.550;9.108;2024-02-16T11:24:49;36.24;31.89;47.20;;
40103;Laerm;25814;48.550;9.108;2024-02-16T11:27:16;38.03;31.72;54.43;;
40103;Laerm;25814;48.550;9.108;2024-02-16T11:29:47;38.80;31.28;55.73;;
40103;Laerm;25814;48.550;9.108;2024-02-16T11:32:13;33.71;30.99;45.07;;
40103;Laerm;25814;48.550;9.108;2024-02-16T11:34:39;37.20;31.10;49.52;;
40103;Laerm;25814;48.550;9.108;2024-02-16T11:37:06;40.28;32.11;62.98;;
40103;Laerm;25814;48.550;9.108;2024-02-16T11:39:33;39.11;32.60;54.25;;
40103;Laerm;25814;48.550;9.108;2024-02-16T11:42:12;53.00;32.58;72.28;;
40103;Laerm;25814;48.550;9.108;2024-02-16T11:44:49;37.65;31.27;52.08;;
40103;Laerm;25814;48.550;9.108;2024-02-16T11:47:21;41.47;31.07;54.06;;
40103;Laerm;25814;48.550;9.108;2024-02-16T11:50:04;39.76;30.91;60.38;;
40103;Laerm;25814;48.550;9.108;2024-02-16T11:52:31;39.45;32.42;56.82;;
40103;Laerm;25814;48.550;9.108;2024-02-16T11:54:57;35.61;31.18;50.23;;
40103;Laerm;25814;48.550;9.108;2024-02-16T11:57:29;36.03;30.83;45.52;;
40103;Laerm;25814;48.550;9.108;2024-02-16T11:59:56;38.18;31.81;47.44;;
40103;Laerm;25814;48.550;9.108;2024-02-16T12:02:24;36.34;30.73;48.58;;
40103;Laerm;25814;48.550;9.108;2024-02-16T12:04:58;35.98;30.77;49.14;;
40103;Laerm;25814;48.550;9.108;2024-02-16T12:07:28;38.22;31.63;54.38;;
40103;Laerm;25814;48.550;9.108;2024-02-16T12:09:59;40.78;30.99;54.66;;
40103;Laerm;25814;48.550;9.108;2024-02-16T12:12:26;44.50;31.23;54.83;;
40103;Laerm;25814;48.550;9.108;2024-02-16T12:14:54;45.42;31.42;57.68;;
40103;Laerm;25814;48.550;9.108;2024-02-16T12:17:20;40.23;31.31;57.72;;
40103;Laerm;25814;48.550;9.108;2024-02-16T12:19:47;38.42;31.02;57.11;;
40103;Laerm;25814;48.550;9.108;2024-02-16T12:22:22;39.60;31.53;60.71;;
40103;Laerm;25814;48.550;9.108;2024-02-16T12:24:50;37.47;32.09;55.56;;
40103;Laerm;25814;48.550;9.108;2024-02-16T12:27:16;38.31;31.66;51.96;;
40103;Laerm;25814;48.550;9.108;2024-02-16T12:29:43;35.92;32.54;48.66;;
40103;Laerm;25814;48.550;9.108;2024-02-16T12:32:09;33.77;30.82;43.33;;
40103;Laerm;25814;48.550;9.108;2024-02-16T12:34:36;39.61;31.45;50.94;;
40103;Laerm;25814;48.550;9.108;2024-02-16T12:37:08;39.81;30.29;60.38;;
40103;Laerm;25814;48.550;9.108;2024-02-16T12:39:37;37.72;30.68;50.34;;
40103;Laerm;25814;48.550;9.108;2024-02-16T12:42:03;35.96;30.67;49.46;;
40103;Laerm;25814;48.550;9.108;2024-02-16T12:44:30;42.94;30.31;55.67;;
40103;Laerm;25814;48.550;9.108;2024-02-16T12:46:56;36.23;30.57;55.63;;
40103;Laerm;25814;48.550;9.108;2024-02-16T12:49:22;36.97;31.05;49.88;;
40103;Laerm;25814;48.550;9.108;2024-02-16T12:51:51;38.72;30.78;57.26;;
40103;Laerm;25814;48.550;9.108;2024-02-16T12:54:18;35.64;30.18;50.32;;
40103;Laerm;25814;48.550;9.108;2024-02-16T12:56:48;52.29;30.64;78.70;;
40103;Laerm;25814;48.550;9.108;2024-02-16T12:59:15;34.79;30.39;49.77;;
40103;Laerm;25814;48.550;9.108;2024-02-16T13:01:42;33.55;31.00;46.26;;
40103;Laerm;25814;48.550;9.108;2024-02-16T13:04:08;37.37;32.29;48.36;;
40103;Laerm;25814;48.550;9.108;2024-02-16T13:06:34;35.99;32.00;47.54;;
40103;Laerm;25814;48.550;9.108;2024-02-16T13:09:01;42.89;31.89;59.98;;
40103;Laerm;25814;48.550;9.108;2024-02-16T13:11:28;36.69;33.29;51.15;;
40103;Laerm;25814;48.550;9.108;2024-02-16T13:13:54;44.37;32.94;58.19;;
40103;Laerm;25814;48.550;9.108;2024-02-16T13:16:20;45.71;31.85;56.65;;
40103;Laerm;25814;48.550;9.108;2024-02-16T13:18:47;46.96;31.92;56.71;;
40103;Laerm;25814;48.550;9.108;2024-02-16T13:21:13;36.41;32.34;52.81;;
40103;Laerm;25814;48.550;9.108;2024-02-16T13:23:41;36.21;31.93;52.57;;
40103;Laerm;25814;48.550;9.108;2024-02-16T13:26:07;45.52;31.61;57.33;;
40103;Laerm;25814;48.550;9.108;2024-02-16T13:28:33;42.41;32.07;60.03;;
40103;Laerm;25814;48.550;9.108;2024-02-16T13:30:59;39.95;31.92;51.61;;
40103;Laerm;25814;48.550;9.108;2024-02-16T13:33:25;40.30;32.62;52.82;;
40103;Laerm;25814;48.550;9.108;2024-02-16T13:35:51;42.16;33.06;52.75;;
40103;Laerm;25814;48.550;9.108;2024-02-16T13:38:17;40.11;32.17;54.21;;
40103;Laerm;25814;48.550;9.108;2024-02-16T13:40:43;40.82;32.01;51.40;;
40103;Laerm;25814;48.550;9.108;2024-02-16T13:43:10;41.59;31.74;66.84;;
40103;Laerm;25814;48.550;9.108;2024-02-16T13:45:49;36.25;31.64;52.03;;
40103;Laerm;25814;48.550;9.108;2024-02-16T13:48:16;38.70;32.16;51.94;;